Time;durP1;ratioP1;P1;durP2;ratioP2;P2;SDS_P1;SDS_P2;PMS_P1;PMS_P2;Temp;Humidity;BMP_temperature;BMP_pressure;BME280_temperature;BME280_humidity;BME280_pressure;Samples;Min_cycle;Max_cycle;Signal;HPM_P1;HPM_P2
2023/12/04 06:45:32;;;;;;;4.63;3.17;;;;;;;;;;10583538;27;20406;-88
2023/12/04 06:50:33;;;;;;;7.60;4.87;;;;;;;;;;10581291;28;20051;-87
2023/12/04 06:55:34;;;;;;;7.93;5.43;;;;;;;;;;10580763;28;20039;-86
2023/12/04 07:00:35;;;;;;;8.23;5.05;;;;;;;;;;10581673;28;20034;-87
2023/12/04 07:05:36;;;;;;;5.05;3.45;;;;;;;;;;10584832;28;20024;-87
2023/12/04 07:10:37;;;;;;;7.55;4.85;;;;;;;;;;10588004;28;20168;-87
2023/12/04 07:15:39;;;;;;;7.28;5.30;;;;;;;;;;10601132;28;20004;-86
2023/12/04 07:20:40;;;;;;;4.43;3.00;;;;;;;;;;10625438;28;20028;-86
2023/12/04 07:25:41;;;;;;;4.45;3.25;;;;;;;;;;10590410;28;20035;-87
2023/12/04 07:31:04;;;;;;;3.03;2.22;;;;;;;;;;10578743;28;20037;-87
2023/12/04 07:36:05;;;;;;;5.38;3.83;;;;;;;;;;10625154;28;20042;-85
2023/12/04 07:41:06;;;;;;;4.85;2.95;;;;;;;;;;10577327;28;20039;-87
2023/12/04 07:46:10;;;;;;;4.03;2.63;;;;;;;;;;10574780;28;20036;-86
2023/12/04 07:51:11;;;;;;;3.83;2.92;;;;;;;;;;10574010;28;20053;-87
2023/12/04 07:56:13;;;;;;;4.57;2.60;;;;;;;;;;10552702;28;20111;-87
2023/12/04 08:01:14;;;;;;;5.57;3.90;;;;;;;;;;10548659;28;20028;-87
2023/12/04 08:06:18;;;;;;;;;;;;;;;;;;10550944;28;20028;-85
2023/12/04 08:11:19;;;;;;;4.15;3.08;;;;;;;;;;10551089;28;20321;-87
2023/12/04 08:16:20;;;;;;;5.25;3.47;;;;;;;;;;10556741;28;20036;-83
2023/12/04 08:21:21;;;;;;;4.03;3.05;;;;;;;;;;10556995;28;20024;-82
2023/12/04 08:26:24;;;;;;;6.25;4.03;;;;;;;;;;10559940;28;20503;-82
2023/12/04 08:31:25;;;;;;;6.57;3.75;;;;;;;;;;10560634;28;20021;-82
2023/12/04 08:36:26;;;;;;;6.40;4.85;;;;;;;;;;10553237;28;20099;-82
2023/12/04 08:41:28;;;;;;;11.77;5.00;;;;;;;;;;10553391;28;20071;-82
2023/12/04 08:46:29;;;;;;;7.93;3.92;;;;;;;;;;10554018;28;20538;-81
2023/12/04 08:51:30;;;;;;;6.68;3.33;;;;;;;;;;10552933;28;20055;-82
2023/12/04 08:56:31;;;;;;;6.22;4.25;;;;;;;;;;10553389;28;20024;-81
2023/12/04 09:01:32;;;;;;;5.18;3.20;;;;;;;;;;10550698;28;20063;-81
2023/12/04 09:06:33;;;;;;;6.97;4.38;;;;;;;;;;10549742;28;20055;-82
2023/12/04 09:11:34;;;;;;;4.20;3.30;;;;;;;;;;10552637;28;20115;-82
2023/12/04 09:16:35;;;;;;;4.95;3.80;;;;;;;;;;10551421;28;20519;-82
2023/12/04 09:21:37;;;;;;;5.72;4.68;;;;;;;;;;10552188;28;20077;-82
2023/12/04 09:26:38;;;;;;;;;;;;;;;;;;10551329;28;20028;-80
2023/12/04 09:31:39;;;;;;;5.50;4.10;;;;;;;;;;10548683;28;19912;-82
2023/12/04 09:36:40;;;;;;;4.68;2.78;;;;;;;;;;10551190;28;20036;-83
2023/12/04 09:41:43;;;;;;;4.70;2.75;;;;;;;;;;10552327;28;20032;-82
2023/12/04 09:46:44;;;;;;;4.70;2.90;;;;;;;;;;10544989;28;20020;-82
2023/12/04 09:51:45;;;;;;;4.60;3.58;;;;;;;;;;10552571;28;20115;-83
2023/12/04 09:56:46;;;;;;;5.18;2.90;;;;;;;;;;10563564;28;20024;-80
2023/12/04 10:01:47;;;;;;;4.15;2.70;;;;;;;;;;10553398;28;20092;-81
2023/12/04 10:06:51;;;;;;;5.55;2.88;;;;;;;;;;10547292;28;20020;-81
2023/12/04 10:11:52;;;;;;;3.83;2.33;;;;;;;;;;10546706;28;20024;-81
2023/12/04 10:16:53;;;;;;;4.65;3.00;;;;;;;;;;10546304;28;20051;-82
2023/12/04 10:21:55;;;;;;;2.60;1.73;;;;;;;;;;10548300;28;20480;-83
2023/12/04 10:26:57;;;;;;;5.35;3.47;;;;;;;;;;10552585;28;20040;-84
2023/12/04 10:32:00;;;;;;;3.67;2.60;;;;;;;;;;10550530;28;20107;-83
2023/12/04 10:37:03;;;;;;;3.60;2.22;;;;;;;;;;10550904;28;20084;-83
2023/12/04 10:42:06;;;;;;;5.13;3.05;;;;;;;;;;10548370;28;20091;-82
2023/12/04 10:47:07;;;;;;;3.72;2.83;;;;;;;;;;10550354;28;20016;-82
2023/12/04 10:52:10;;;;;;;4.35;3.25;;;;;;;;;;10551535;28;20024;-82
2023/12/04 10:57:12;;;;;;;5.70;3.00;;;;;;;;;;10555992;28;20432;-82
2023/12/04 11:02:17;;;;;;;6.00;3.80;;;;;;;;;;10546431;28;20610;-81
2023/12/04 11:07:20;;;;;;;5.10;3.13;;;;;;;;;;10546723;28;20028;-82
2023/12/04 11:12:26;;;;;;;6.68;4.20;;;;;;;;;;10545304;28;20032;-81
2023/12/04 11:17:28;;;;;;;4.18;2.90;;;;;;;;;;10544541;28;20391;-82
2023/12/04 11:22:29;;;;;;;6.47;4.38;;;;;;;;;;10545407;28;20032;-82
2023/12/04 11:27:30;;;;;;;6.68;4.80;;;;;;;;;;10545362;28;20462;-81
2023/12/04 11:32:31;;;;;;;5.90;4.13;;;;;;;;;;10550622;28;20028;-82
2023/12/04 11:37:33;;;;;;;8.25;5.63;;;;;;;;;;10552341;28;20027;-82
2023/12/04 11:42:35;;;;;;;9.07;5.50;;;;;;;;;;10551438;28;20059;-81
2023/12/04 11:47:56;;;;;;;8.80;5.78;;;;;;;;;;10552140;28;20020;-80
2023/12/04 11:52:57;;;;;;;5.00;3.43;;;;;;;;;;10552841;28;20487;-80
2023/12/04 11:57:58;;;;;;;4.72;3.13;;;;;;;;;;10552749;28;20027;-79
2023/12/04 12:03:01;;;;;;;11.98;6.60;;;;;;;;;;10554169;28;20115;-80
2023/12/04 12:08:03;;;;;;;10.95;5.85;;;;;;;;;;10563704;28;20487;-78
2023/12/04 12:13:04;;;;;;;8.00;5.90;;;;;;;;;;10549864;28;20024;-78
2023/12/04 12:18:05;;;;;;;;;;;;;;;;;;10551902;28;20092;-79
2023/12/04 12:23:06;;;;;;;6.43;5.03;;;;;;;;;;10552930;28;20336;-78
2023/12/04 12:28:07;;;;;;;6.60;3.88;;;;;;;;;;10552168;28;20028;-79
2023/12/04 12:33:08;;;;;;;4.60;3.30;;;;;;;;;;10548177;28;20036;-78
2023/12/04 12:38:09;;;;;;;7.45;5.47;;;;;;;;;;10547215;28;20111;-78
2023/12/04 12:43:11;;;;;;;8.82;6.05;;;;;;;;;;10550854;28;20039;-81
2023/12/04 12:48:16;;;;;;;7.28;4.78;;;;;;;;;;10552255;28;20020;-77
2023/12/04 12:53:18;;;;;;;7.10;4.93;;;;;;;;;;10552711;28;20028;-79
2023/12/04 12:58:20;;;;;;;6.20;4.60;;;;;;;;;;10549977;28;20032;-78
2023/12/04 13:03:21;;;;;;;4.85;3.40;;;;;;;;;;10548275;28;20441;-77
2023/12/04 13:08:22;;;;;;;3.60;2.75;;;;;;;;;;10548632;28;20039;-77
2023/12/04 13:13:24;;;;;;;7.07;5.30;;;;;;;;;;10545198;28;20126;-77
2023/12/04 13:18:25;;;;;;;;;;;;;;;;;;10547428;28;20095;-77
2023/12/04 13:23:26;;;;;;;10.93;5.80;;;;;;;;;;10550811;28;19908;-78
2023/12/04 13:28:27;;;;;;;6.00;4.15;;;;;;;;;;10547940;28;20048;-78
2023/12/04 13:33:28;;;;;;;7.00;5.05;;;;;;;;;;10552823;28;20562;-78
2023/12/04 13:38:29;;;;;;;5.50;3.05;;;;;;;;;;10554421;28;20194;-77
2023/12/04 13:48:50;;;;;;;7.57;5.20;;;;;;;;;;10548220;28;20032;-78
2023/12/04 13:53:55;;;;;;;4.68;3.08;;;;;;;;;;10544164;28;20024;-77
2023/12/04 13:58:56;;;;;;;3.85;2.38;;;;;;;;;;10547725;28;20016;-78
2023/12/04 14:04:02;;;;;;;5.05;3.83;;;;;;;;;;10547314;28;20031;-77
2023/12/04 14:09:09;;;;;;;5.18;3.10;;;;;;;;;;10544400;28;20059;-78
2023/12/04 14:14:11;;;;;;;4.63;3.47;;;;;;;;;;10546101;28;20024;-78
2023/12/04 14:19:13;;;;;;;;;;;;;;;;;;10553908;28;20476;-79
2023/12/04 14:24:14;;;;;;;4.85;3.40;;;;;;;;;;10547819;28;19915;-78
2023/12/04 14:29:15;;;;;;;3.75;2.58;;;;;;;;;;10544493;28;20024;-77
2023/12/04 14:34:16;;;;;;;4.82;3.60;;;;;;;;;;10552536;28;20069;-80
2023/12/04 14:39:18;;;;;;;4.20;2.40;;;;;;;;;;10552030;28;20028;-77
2023/12/04 14:44:19;;;;;;;2.88;2.13;;;;;;;;;;10549444;28;20103;-78
2023/12/04 14:49:20;;;;;;;2.88;1.88;;;;;;;;;;10547838;28;20055;-79
2023/12/04 14:54:21;;;;;;;4.25;2.88;;;;;;;;;;10548303;28;20104;-78
2023/12/04 15:00:19;;;;;;;3.47;2.83;;;;;;;;;;10548386;28;20372;-78
2023/12/04 15:15:40;;;;;;;4.05;2.40;;;;;;;;;;10564043;28;20028;-78
2023/12/04 15:20:41;;;;;;;3.95;2.50;;;;;;;;;;10581346;28;20483;-78
2023/12/04 15:25:43;;;;;;;5.03;2.80;;;;;;;;;;10575842;28;20075;-78
2023/12/04 15:30:47;;;;;;;5.18;3.38;;;;;;;;;;10556477;28;20119;-78
2023/12/04 15:35:48;;;;;;;5.75;4.68;;;;;;;;;;10554795;28;20024;-78
2023/12/04 15:40:49;;;;;;;3.80;2.88;;;;;;;;;;10554347;28;20040;-78
2023/12/04 15:45:50;;;;;;;4.97;3.30;;;;;;;;;;10553631;28;20126;-78
2023/12/04 15:50:51;;;;;;;5.78;3.55;;;;;;;;;;10549268;28;20118;-77
2023/12/04 15:55:52;;;;;;;3.47;2.50;;;;;;;;;;10550309;28;20095;-78
2023/12/04 16:00:54;;;;;;;5.38;3.78;;;;;;;;;;10549079;28;20115;-78
2023/12/04 16:05:57;;;;;;;3.83;2.30;;;;;;;;;;10549439;28;20050;-78
2023/12/04 16:10:58;;;;;;;3.10;1.95;;;;;;;;;;10550743;28;20138;-78
2023/12/04 16:15:59;;;;;;;4.80;3.42;;;;;;;;;;10553519;28;20188;-79
2023/12/04 16:21:00;;;;;;;5.25;3.83;;;;;;;;;;10551806;28;20020;-78
2023/12/04 16:26:01;;;;;;;3.20;2.50;;;;;;;;;;10549863;28;20024;-77
2023/12/04 16:31:02;;;;;;;4.18;3.22;;;;;;;;;;10551147;28;20144;-77
2023/12/04 16:36:03;;;;;;;5.00;3.72;;;;;;;;;;10549667;28;20616;-76
2023/12/04 16:41:04;;;;;;;5.43;3.70;;;;;;;;;;10549683;28;20030;-77
2023/12/04 16:46:06;;;;;;;3.88;2.58;;;;;;;;;;10548274;28;20112;-78
2023/12/04 16:51:08;;;;;;;2.78;2.00;;;;;;;;;;10546536;28;20027;-77
2023/12/04 16:56:08;;;;;;;;;;;;;;;;;;10546820;28;20051;-78
2023/12/04 17:01:10;;;;;;;3.37;2.10;;;;;;;;;;10545830;28;19911;-78
2023/12/04 17:06:11;;;;;;;;;;;;;;;;;;10528440;28;20270;-78
2023/12/04 17:11:12;;;;;;;2.75;1.95;;;;;;;;;;10545741;28;19910;-78
2023/12/04 17:16:14;;;;;;;;;;;;;;;;;;10548468;28;20040;-77
2023/12/04 17:21:36;;;;;;;3.30;2.60;;;;;;;;;;10559681;28;19915;-79
2023/12/04 17:32:45;;;;;;;5.03;3.55;;;;;;;;;;10471237;28;20063;-80
2023/12/04 17:37:53;;;;;;;4.57;3.40;;;;;;;;;;10547254;28;20047;-80
2023/12/04 17:43:04;;;;;;;3.67;2.90;;;;;;;;;;10549716;28;20065;-80
2023/12/04 17:48:13;;;;;;;4.38;3.45;;;;;;;;;;10549895;28;20579;-79
2023/12/04 17:53:20;;;;;;;5.28;3.55;;;;;;;;;;10547703;28;20500;-80
2023/12/04 17:59:00;;;;;;;4.65;3.40;;;;;;;;;;10547909;28;20054;-81
2023/12/04 18:04:54;;;;;;;4.28;3.25;;;;;;;;;;10546533;28;20039;-80
2023/12/04 18:10:23;;;;;;;4.60;3.55;;;;;;;;;;10548614;28;20020;-80
2023/12/04 18:15:24;;;;;;;4.75;3.88;;;;;;;;;;10549884;28;20032;-80
2023/12/04 18:20:25;;;;;;;5.05;3.65;;;;;;;;;;10548974;28;20111;-81
2023/12/04 18:25:35;;;;;;;7.35;4.25;;;;;;;;;;10550628;28;20101;-80
2023/12/04 18:30:39;;;;;;;3.90;2.78;;;;;;;;;;10547519;28;20032;-81
2023/12/04 18:35:48;;;;;;;;;;;;;;;;;;10547702;28;20119;-81
2023/12/04 18:41:12;;;;;;;5.57;3.95;;;;;;;;;;10549656;28;19904;-81
2023/12/04 18:46:20;;;;;;;4.83;3.70;;;;;;;;;;10553083;28;20032;-80
2023/12/04 18:51:22;;;;;;;4.97;3.42;;;;;;;;;;10560389;28;20355;-80
2023/12/04 18:56:25;;;;;;;5.40;3.28;;;;;;;;;;10552055;28;20035;-80
2023/12/04 19:01:27;;;;;;;5.55;4.22;;;;;;;;;;10547396;28;20479;-80
2023/12/04 19:06:43;;;;;;;3.95;2.60;;;;;;;;;;10546070;28;20044;-79
2023/12/04 19:11:58;;;;;;;6.28;4.65;;;;;;;;;;10547461;28;20390;-79
2023/12/04 19:17:16;;;;;;;4.63;3.65;;;;;;;;;;10546816;28;20039;-80
2023/12/04 19:28:08;;;;;;;;;;;;;;;;;;10545711;28;20016;-79
2023/12/04 19:33:47;;;;;;;6.22;5.40;;;;;;;;;;10547410;28;19949;-79
2023/12/04 19:45:03;;;;;;;5.13;3.50;;;;;;;;;;10545893;28;20032;-80
